Time;durP1;ratioP1;P1;durP2;ratioP2;P2;SDS_P1;SDS_P2;PMS_P1;PMS_P2;Temp;Humidity;BMP_temperature;BMP_pressure;BME280_temperature;BME280_humidity;BME280_pressure;Samples;Min_cycle;Max_cycle;Signal;HPM_P1;HPM_P2
2022/11/04 00:01:24;;;;;;;2.77;2.27;;;9.90;99.90;;;;;;5047687;28;20210;-91
2022/11/04 00:03:53;;;;;;;4.37;2.53;;;9.90;99.90;;;;;;5050960;28;20202;-92
2022/11/04 00:06:20;;;;;;;6.73;2.60;;;9.80;99.90;;;;;;5052290;28;20211;-91
2022/11/04 00:08:49;;;;;;;7.97;2.43;;;9.80;99.90;;;;;;5054740;28;20234;-91
2022/11/04 00:14:03;;;;;;;6.70;3.25;;;9.70;99.90;;;;;;5055160;28;20474;-93
2022/11/04 00:19:15;;;;;;;5.03;2.33;;;9.70;99.90;;;;;;5054099;28;20669;-92
2022/11/04 00:29:58;;;;;;;4.50;2.03;;;9.90;99.90;;;;;;5048108;28;20290;-92
2022/11/04 00:35:16;;;;;;;3.97;2.23;;;9.50;99.90;;;;;;5048465;28;20213;-91
2022/11/04 00:37:44;;;;;;;8.40;2.37;;;9.50;99.90;;;;;;5048381;28;20584;-92
2022/11/04 00:40:14;;;;;;;8.73;3.22;;;9.60;99.90;;;;;;5047178;28;20462;-91
2022/11/04 00:42:51;;;;;;;4.53;2.23;;;9.70;99.90;;;;;;5048431;28;20195;-91
2022/11/04 00:45:19;;;;;;;9.10;2.30;;;9.80;99.90;;;;;;5047659;28;20221;-92
2022/11/04 00:47:48;;;;;;;6.67;1.93;;;9.80;99.90;;;;;;5047589;28;20213;-92
2022/11/04 00:50:16;;;;;;;8.67;2.80;;;9.90;99.90;;;;;;5047644;28;20207;-94
2022/11/04 00:52:43;;;;;;;8.27;2.17;;;9.80;99.90;;;;;;5048371;28;20197;-91
2022/11/04 00:55:10;;;;;;;5.73;2.03;;;9.80;99.90;;;;;;5050333;28;20242;-92
2022/11/04 00:57:41;;;;;;;7.73;2.07;;;9.90;99.90;;;;;;5053401;28;20191;-91
2022/11/04 01:00:22;;;;;;;6.67;2.10;;;9.80;99.90;;;;;;5052801;28;20218;-92
2022/11/04 01:02:51;;;;;;;9.37;2.17;;;9.80;99.90;;;;;;5048946;28;20191;-93
2022/11/04 01:05:20;;;;;;;7.43;2.10;;;9.70;99.90;;;;;;5049917;28;20221;-95
2022/11/04 01:07:47;;;;;;;6.80;2.00;;;9.80;99.90;;;;;;5048267;28;20310;-90
2022/11/04 01:10:15;;;;;;;5.47;2.10;;;9.70;99.90;;;;;;5048144;28;20223;-94
2022/11/04 01:12:59;;;;;;;4.60;2.00;;;9.80;99.90;;;;;;5047556;28;20651;-92
2022/11/04 01:15:30;;;;;;;8.63;2.43;;;9.80;99.90;;;;;;5048190;28;20265;-94
2022/11/04 01:17:57;;;;;;;8.50;2.00;;;9.80;99.90;;;;;;5048511;28;20203;-94
2022/11/04 01:20:27;;;;;;;4.20;1.93;;;9.90;99.90;;;;;;5049824;28;20217;-94
2022/11/04 01:23:00;;;;;;;6.80;1.43;;;9.90;99.90;;;;;;5049639;28;20261;-93
2022/11/04 01:25:33;;;;;;;8.90;1.97;;;9.90;99.90;;;;;;5049446;28;20191;-92
2022/11/04 01:28:18;;;;;;;5.40;1.73;;;10.00;99.90;;;;;;5051006;28;20218;-94
2022/11/04 01:30:49;;;;;;;10.50;2.80;;;10.00;99.90;;;;;;5048106;28;20202;-92
2022/11/04 01:33:19;;;;;;;7.43;2.90;;;10.00;99.90;;;;;;5049143;28;20210;-91
2022/11/04 01:35:47;;;;;;;6.53;2.13;;;10.00;99.90;;;;;;5052387;28;20271;-94
2022/11/04 01:38:18;;;;;;;6.73;2.53;;;10.00;99.90;;;;;;5049066;28;20211;-92
2022/11/04 01:40:46;;;;;;;10.10;1.97;;;10.00;99.90;;;;;;5051782;28;20193;-90
2022/11/04 01:43:16;;;;;;;11.90;2.03;;;9.90;99.90;;;;;;5050140;28;20578;-90
2022/11/04 01:45:55;;;;;;;7.97;2.43;;;10.00;99.90;;;;;;5051290;28;20187;-91
2022/11/04 01:48:32;;;;;;;4.10;1.50;;;9.90;99.90;;;;;;5048386;28;20214;-91
2022/11/04 01:51:10;;;;;;;6.00;2.10;;;9.90;99.90;;;;;;5050517;28;20202;-92
2022/11/04 01:53:45;;;;;;;11.10;2.47;;;9.90;99.90;;;;;;5050030;28;20183;-93
2022/11/04 01:56:19;;;;;;;5.70;1.73;;;9.80;99.90;;;;;;5033491;28;20206;-92
2022/11/04 01:58:57;;;;;;;13.07;2.13;;;9.70;99.90;;;;;;5050948;28;20178;-91
2022/11/04 02:01:25;;;;;;;8.77;2.00;;;9.70;99.90;;;;;;5031265;28;20214;-91
2022/11/04 02:06:49;;;;;;;6.40;1.83;;;9.60;99.90;;;;;;5033355;28;20195;-94
2022/11/04 02:09:34;;;;;;;8.33;2.27;;;9.60;99.90;;;;;;5045347;28;20207;-91
2022/11/04 02:15:32;;;;;;;8.83;1.90;;;9.60;99.90;;;;;;5046632;28;20201;-91
2022/11/04 02:18:16;;;;;;;11.30;2.20;;;9.60;99.90;;;;;;5050197;28;20199;-92
2022/11/04 02:21:16;;;;;;;7.10;2.13;;;9.60;99.90;;;;;;5051161;28;20213;-93
2022/11/04 02:24:32;;;;;;;10.50;2.67;;;9.60;99.90;;;;;;5029909;28;20187;-91
2022/11/04 02:27:33;;;;;;;12.23;2.10;;;9.60;99.90;;;;;;4986628;28;20214;-92
2022/11/04 02:30:10;;;;;;;10.30;2.20;;;9.60;99.90;;;;;;4984596;28;20204;-92
2022/11/04 02:33:23;;;;;;;8.30;2.27;;;9.60;99.90;;;;;;5036444;28;20211;-91
2022/11/04 02:36:13;;;;;;;12.77;2.30;;;9.60;99.90;;;;;;5046446;28;20227;-90
2022/11/04 02:38:51;;;;;;;6.73;2.60;;;9.60;99.90;;;;;;5048396;28;20219;-91
2022/11/04 02:41:35;;;;;;;5.97;1.93;;;9.70;99.90;;;;;;5046153;28;20209;-95
2022/11/04 02:44:10;;;;;;;7.23;2.10;;;9.60;99.90;;;;;;5048418;28;20191;-92
2022/11/04 02:46:59;;;;;;;10.00;2.50;;;9.50;99.90;;;;;;5049166;28;20206;-91
2022/11/04 02:49:40;;;;;;;9.60;2.43;;;9.40;99.90;;;;;;5048108;28;20274;-92
2022/11/04 02:52:11;;;;;;;5.43;2.50;;;9.40;99.90;;;;;;5049819;28;20179;-92
2022/11/04 02:54:47;;;;;;;11.20;3.20;;;9.50;99.90;;;;;;5047883;28;20485;-91
2022/11/04 02:57:23;;;;;;;6.83;2.60;;;9.60;99.90;;;;;;5047327;28;20202;-96
2022/11/04 02:59:54;;;;;;;12.43;2.80;;;9.70;99.90;;;;;;5047521;28;20201;-92
2022/11/04 03:02:30;;;;;;;9.63;2.60;;;9.60;99.90;;;;;;5049894;28;20219;-92
2022/11/04 03:04:59;;;;;;;7.47;2.43;;;9.60;99.90;;;;;;5048246;28;20550;-91
2022/11/04 03:08:02;;;;;;;7.20;2.47;;;9.60;99.90;;;;;;5048608;28;20207;-92
2022/11/04 03:10:39;;;;;;;11.20;3.10;;;9.50;99.90;;;;;;5051228;28;20207;-91
2022/11/04 03:13:13;;;;;;;11.20;3.30;;;9.50;99.90;;;;;;5053247;28;20191;-93
2022/11/04 03:15:50;;;;;;;9.20;2.67;;;9.50;99.90;;;;;;5045342;28;20235;-92
2022/11/04 03:18:41;;;;;;;13.80;3.17;;;9.60;99.90;;;;;;5050755;28;20222;-94
2022/11/04 03:21:35;;;;;;;7.73;2.57;;;9.60;99.90;;;;;;5049523;28;20223;-95
2022/11/04 03:24:08;;;;;;;8.93;2.63;;;9.60;99.90;;;;;;5048218;28;20203;-93
2022/11/04 03:26:47;;;;;;;12.13;2.97;;;9.60;99.90;;;;;;5052177;28;20198;-96
2022/11/04 03:29:32;;;;;;;9.47;2.60;;;9.50;99.90;;;;;;5057332;28;20218;-94
2022/11/04 03:32:08;;;;;;;7.10;2.70;;;9.70;99.90;;;;;;5057822;28;20301;-95
2022/11/04 03:34:38;;;;;;;8.13;2.87;;;9.50;99.90;;;;;;5057437;28;20235;-95
2022/11/04 03:37:11;;;;;;;10.47;3.20;;;9.50;99.90;;;;;;5059038;28;20231;-93
2022/11/04 03:39:51;;;;;;;4.93;3.10;;;9.50;99.90;;;;;;5058331;28;20213;-92
2022/11/04 03:42:46;;;;;;;9.63;2.90;;;9.40;99.90;;;;;;5056343;28;20211;-92
2022/11/04 03:45:16;;;;;;;9.73;3.00;;;9.30;99.90;;;;;;5055722;28;20176;-95
2022/11/04 03:51:24;;;;;;;7.03;3.13;;;9.40;99.90;;;;;;5056167;28;20182;-96
2022/11/04 03:54:00;;;;;;;13.00;3.30;;;9.40;99.90;;;;;;5040755;28;20203;-91
2022/11/04 03:56:48;;;;;;;10.03;3.63;;;9.40;99.90;;;;;;5054471;28;20300;-93
2022/11/04 03:59:47;;;;;;;10.37;3.43;;;9.50;99.90;;;;;;5051240;28;20210;-92
2022/11/04 04:02:22;;;;;;;6.33;3.40;;;9.50;99.90;;;;;;5050870;28;20211;-92
2022/11/04 04:05:13;;;;;;;10.30;3.53;;;9.40;99.90;;;;;;5051238;28;20214;-92
2022/11/04 04:07:51;;;;;;;7.30;3.30;;;9.60;99.90;;;;;;5051630;28;20199;-92
2022/11/04 04:10:39;;;;;;;11.13;4.10;;;9.70;99.90;;;;;;5048037;28;20193;-91
2022/11/04 04:13:17;;;;;;;6.53;3.50;;;9.70;99.90;;;;;;5045149;28;20191;-93
2022/11/04 04:16:34;;;;;;;7.53;3.60;;;9.80;99.90;;;;;;5048937;28;20227;-92
2022/11/04 04:19:07;;;;;;;6.07;3.43;;;9.80;99.90;;;;;;5050410;28;20242;-94
2022/11/04 04:21:50;;;;;;;7.60;3.83;;;9.90;99.90;;;;;;5051685;28;20203;-92
2022/11/04 04:30:16;;;;;;;11.43;3.97;;;10.00;99.90;;;;;;5047612;28;20199;-93
2022/11/04 04:32:46;;;;;;;11.33;4.17;;;10.00;99.90;;;;;;5047307;28;20207;-94
2022/11/04 04:35:41;;;;;;;10.53;3.93;;;10.10;99.90;;;;;;5043658;28;20640;-91
2022/11/04 04:47:05;;;;;;;11.30;4.40;;;10.10;99.90;;;;;;4964529;29;20205;-96
2022/11/04 04:49:49;;;;;;;12.97;4.60;;;10.00;99.90;;;;;;4964993;29;20213;-92
2022/11/04 04:52:30;;;;;;;13.63;4.97;;;10.10;99.90;;;;;;4964373;29;20244;-95
2022/11/04 04:54:57;;;;;;;14.40;4.50;;;10.10;99.90;;;;;;4964583;29;20309;-95
2022/11/04 04:57:38;;;;;;;11.93;5.00;;;10.10;99.90;;;;;;4964507;29;20229;-94
2022/11/04 05:00:25;;;;;;;15.00;4.83;;;10.20;99.90;;;;;;4964305;29;20209;-92
2022/11/04 05:02:58;;;;;;;8.70;4.47;;;10.10;99.90;;;;;;4960969;29;20286;-90
2022/11/04 05:05:30;;;;;;;17.67;4.83;;;10.30;99.90;;;;;;5012714;28;20199;-91
2022/11/04 05:08:07;;;;;;;10.00;4.87;;;10.20;99.90;;;;;;5041739;28;20666;-94
2022/11/04 05:10:43;;;;;;;8.90;4.90;;;10.10;99.90;;;;;;5041570;28;20206;-91
2022/11/04 05:13:27;;;;;;;12.27;5.63;;;10.10;99.90;;;;;;5040127;28;20199;-94
2022/11/04 05:16:04;;;;;;;11.53;5.30;;;10.10;99.90;;;;;;5042270;28;20238;-92
2022/11/04 05:18:32;;;;;;;8.00;4.47;;;10.30;99.90;;;;;;5044930;28;20214;-93
2022/11/04 05:21:04;;;;;;;11.33;4.90;;;10.40;99.90;;;;;;5045865;28;20191;-96
2022/11/04 05:23:35;;;;;;;14.67;4.73;;;10.40;99.90;;;;;;5047116;28;20210;-94
2022/11/04 05:26:03;;;;;;;17.57;4.83;;;10.40;99.90;;;;;;5044085;28;20638;-91
2022/11/04 05:28:47;;;;;;;12.20;5.10;;;10.30;99.90;;;;;;5040600;28;20215;-91
2022/11/04 05:31:16;;;;;;;10.73;4.50;;;10.40;99.90;;;;;;5041155;28;20211;-90
2022/11/04 05:33:43;;;;;;;12.47;5.07;;;10.40;99.90;;;;;;5040558;28;20214;-91
2022/11/04 05:36:13;;;;;;;8.83;4.50;;;10.50;99.90;;;;;;5039461;28;20629;-91
2022/11/04 05:39:12;;;;;;;11.07;4.47;;;10.50;99.90;;;;;;5040236;28;20203;-96
2022/11/04 05:42:09;;;;;;;18.67;6.90;;;10.60;99.90;;;;;;5040937;28;20431;-95
2022/11/04 05:44:37;;;;;;;10.50;4.87;;;10.70;99.90;;;;;;5040108;28;20203;-91
2022/11/04 05:47:17;;;;;;;12.63;4.57;;;10.70;99.90;;;;;;5038367;28;20218;-91
2022/11/04 05:49:46;;;;;;;11.33;4.73;;;10.70;99.90;;;;;;5038221;28;20206;-92
2022/11/04 05:52:19;;;;;;;16.00;4.70;;;10.70;99.90;;;;;;5038752;28;20204;-91
2022/11/04 05:54:49;;;;;;;6.73;4.17;;;10.60;99.90;;;;;;5037837;28;20207;-91
2022/11/04 05:57:18;;;;;;;10.53;4.40;;;10.70;99.90;;;;;;5039936;28;20239;-95
2022/11/04 05:59:52;;;;;;;14.37;5.60;;;10.80;99.90;;;;;;5037461;28;20213;-93
2022/11/04 06:02:21;;;;;;;11.17;4.70;;;10.80;99.90;;;;;;5036801;28;20215;-94
2022/11/04 06:04:47;;;;;;;10.33;4.50;;;10.80;99.90;;;;;;5037798;28;20205;-94
2022/11/04 06:07:17;;;;;;;8.50;4.57;;;10.90;99.90;;;;;;5037674;28;20208;-92
2022/11/04 06:09:45;;;;;;;12.20;4.73;;;10.90;99.90;;;;;;5040063;28;20197;-91
2022/11/04 06:12:16;;;;;;;13.67;5.20;;;10.90;99.90;;;;;;5041165;28;20196;-94
2022/11/04 06:14:52;;;;;;;15.20;4.57;;;10.80;99.90;;;;;;5044300;28;20212;-92
2022/11/04 06:17:24;;;;;;;12.53;4.70;;;10.90;99.90;;;;;;5040296;28;20231;-92
2022/11/04 06:19:59;;;;;;;17.23;4.87;;;10.90;99.90;;;;;;5039271;28;20591;-92
2022/11/04 06:22:27;;;;;;;14.47;4.87;;;10.80;99.90;;;;;;5020855;28;20195;-92
2022/11/04 06:24:55;;;;;;;10.60;4.30;;;10.70;99.90;;;;;;5037757;28;20200;-94
2022/11/04 06:27:22;;;;;;;13.33;4.70;;;10.80;99.90;;;;;;5037791;28;20203;-96
2022/11/04 06:29:56;;;;;;;9.47;4.37;;;10.80;99.90;;;;;;5036068;28;20334;-95
2022/11/04 06:32:26;;;;;;;12.60;4.50;;;10.80;99.90;;;;;;5037949;28;20208;-94
2022/11/04 06:34:59;;;;;;;16.60;4.77;;;10.90;99.90;;;;;;5035767;28;20198;-91
2022/11/04 06:37:29;;;;;;;14.77;6.70;;;10.90;99.90;;;;;;5033236;28;20446;-92
2022/11/04 06:39:58;;;;;;;11.40;4.47;;;11.20;99.90;;;;;;5034620;28;20203;-92
2022/11/04 06:42:31;;;;;;;12.13;4.63;;;11.10;99.90;;;;;;5034831;28;20562;-91
2022/11/04 06:45:04;;;;;;;11.77;4.83;;;11.00;99.90;;;;;;5034647;28;20199;-91
2022/11/04 06:47:37;;;;;;;17.97;5.50;;;10.90;99.90;;;;;;5034788;28;20205;-91
2022/11/04 06:50:23;;;;;;;12.20;4.70;;;10.90;99.90;;;;;;5035074;28;20213;-94
2022/11/04 06:52:50;;;;;;;11.73;4.43;;;10.70;99.90;;;;;;5017842;28;20191;-93
2022/11/04 06:55:24;;;;;;;9.00;4.47;;;10.70;99.90;;;;;;5033596;28;20203;-95
2022/11/04 06:57:57;;;;;;;11.83;4.73;;;10.80;99.90;;;;;;5035172;28;20228;-92
2022/11/04 07:00:27;;;;;;;18.90;8.77;;;10.80;99.90;;;;;;5041157;28;20203;-92
2022/11/04 07:03:00;;;;;;;10.57;5.97;;;10.80;99.90;;;;;;5042017;28;20192;-92
2022/11/04 07:05:28;;;;;;;13.67;5.90;;;10.80;99.90;;;;;;5042160;28;20214;-90
2022/11/04 07:08:01;;;;;;;14.80;5.87;;;10.80;99.90;;;;;;5042349;28;20203;-93
2022/11/04 07:10:28;;;;;;;12.67;4.40;;;10.80;99.90;;;;;;5041891;28;20204;-90
2022/11/04 07:12:58;;;;;;;11.10;4.70;;;10.90;99.90;;;;;;5042239;28;20203;-91
2022/11/04 07:15:32;;;;;;;14.80;5.07;;;10.90;99.90;;;;;;5042592;28;20198;-94
2022/11/04 07:17:59;;;;;;;13.87;4.67;;;10.90;99.90;;;;;;5041297;28;20229;-92
2022/11/04 07:20:26;;;;;;;12.57;4.63;;;10.90;99.90;;;;;;5041332;28;20200;-94
2022/11/04 07:22:54;;;;;;;13.77;5.00;;;10.80;99.90;;;;;;5041102;28;20195;-91
2022/11/04 07:25:21;;;;;;;10.90;5.93;;;10.60;99.90;;;;;;5040721;28;20648;-90
2022/11/04 07:27:48;;;;;;;10.93;4.63;;;10.50;99.90;;;;;;5040709;28;20208;-92
2022/11/04 07:30:15;;;;;;;7.73;4.50;;;10.60;99.90;;;;;;5040245;28;20650;-90
2022/11/04 07:32:43;;;;;;;16.25;6.63;;;10.80;99.90;;;;;;5039878;28;20449;-90
2022/11/04 07:35:09;;;;;;;17.73;5.67;;;11.00;99.90;;;;;;5040582;28;20207;-90
2022/11/04 07:37:36;;;;;;;13.50;4.93;;;11.10;99.90;;;;;;5040361;28;20235;-93
2022/11/04 07:40:04;;;;;;;17.57;5.90;;;11.10;99.90;;;;;;5040941;28;20202;-90
2022/11/04 07:42:30;;;;;;;13.47;4.63;;;11.10;99.90;;;;;;5041192;28;20560;-90
2022/11/04 07:44:57;;;;;;;15.23;4.93;;;11.10;99.90;;;;;;5041316;28;20209;-90
2022/11/04 07:47:24;;;;;;;12.00;4.97;;;11.10;99.90;;;;;;5040781;28;20210;-90
2022/11/04 07:49:52;;;;;;;14.83;5.63;;;11.20;99.90;;;;;;5040700;28;20205;-87
2022/11/04 07:52:19;;;;;;;11.93;5.57;;;11.40;99.90;;;;;;5039941;28;20591;-90
2022/11/04 07:54:47;;;;;;;13.13;5.50;;;11.30;99.90;;;;;;5040218;28;20217;-86
2022/11/04 07:57:14;;;;;;;13.43;5.33;;;11.10;99.90;;;;;;5039920;28;20243;-89
2022/11/04 07:59:40;;;;;;;14.47;5.07;;;10.90;99.90;;;;;;5039585;28;20207;-89
2022/11/04 08:02:09;;;;;;;16.57;5.20;;;10.90;99.90;;;;;;5039066;28;20214;-85
2022/11/04 08:04:37;;;;;;;10.30;4.93;;;11.10;99.90;;;;;;5039339;28;20209;-87
2022/11/04 08:07:08;;;;;;;12.23;4.50;;;11.00;99.90;;;;;;5039429;28;20681;-86
2022/11/04 08:09:36;;;;;;;12.87;5.03;;;11.00;99.90;;;;;;5039690;28;20571;-88
2022/11/04 08:12:04;;;;;;;7.63;4.27;;;11.10;99.90;;;;;;5035839;28;20555;-89
2022/11/04 08:14:31;;;;;;;13.03;5.00;;;11.10;99.90;;;;;;5036221;28;20270;-90
2022/11/04 08:16:58;;;;;;;9.50;5.03;;;11.30;99.90;;;;;;5035916;28;20232;-88
2022/11/04 08:19:25;;;;;;;12.60;5.00;;;11.60;99.90;;;;;;5036098;28;20203;-88
2022/11/04 08:21:52;;;;;;;14.47;4.83;;;11.60;99.90;;;;;;5036169;28;20656;-87
2022/11/04 08:24:20;;;;;;;8.33;4.87;;;11.40;99.90;;;;;;5036130;28;20205;-88
2022/11/04 08:26:47;;;;;;;11.93;4.83;;;11.40;99.90;;;;;;5036232;28;20199;-91
2022/11/04 08:29:14;;;;;;;11.03;4.30;;;11.40;99.90;;;;;;5035345;28;20215;-87
2022/11/04 08:31:41;;;;;;;12.90;5.97;;;11.50;99.90;;;;;;5035215;28;20574;-87
2022/11/04 08:34:08;;;;;;;14.13;4.27;;;11.30;99.90;;;;;;5035794;28;20201;-91
2022/11/04 08:36:39;;;;;;;10.93;5.13;;;11.30;99.90;;;;;;5016266;28;20209;-88
2022/11/04 08:39:07;;;;;;;12.97;5.33;;;11.20;99.90;;;;;;5016004;28;20704;-88
2022/11/04 08:41:37;;;;;;;9.20;4.83;;;11.30;99.90;;;;;;5016209;28;20220;-88
2022/11/04 08:44:05;;;;;;;12.83;6.57;;;11.50;99.90;;;;;;5015955;28;20709;-89
2022/11/04 08:46:36;;;;;;;10.50;5.67;;;11.70;99.90;;;;;;5016231;28;20577;-89
2022/11/04 08:49:04;;;;;;;14.90;5.83;;;11.80;99.90;;;;;;5015998;28;20206;-89
2022/11/04 08:51:36;;;;;;;10.80;5.67;;;11.90;99.90;;;;;;5017496;28;20206;-89
2022/11/04 08:54:05;;;;;;;8.60;4.90;;;11.90;99.90;;;;;;5036035;28;20393;-88
2022/11/04 08:56:35;;;;;;;15.77;5.43;;;11.70;99.90;;;;;;5035624;28;20435;-88
2022/11/04 08:59:05;;;;;;;9.20;4.03;;;11.50;99.90;;;;;;5036207;28;20435;-89
2022/11/04 09:01:33;;;;;;;10.47;4.53;;;11.60;99.90;;;;;;5035953;28;20219;-88
2022/11/04 09:04:00;;;;;;;8.20;3.73;;;11.80;99.90;;;;;;5036140;28;20562;-89
2022/11/04 09:06:30;;;;;;;10.40;4.53;;;12.10;99.90;;;;;;5035507;28;20229;-88
2022/11/04 09:09:02;;;;;;;7.80;4.07;;;12.30;99.90;;;;;;5035816;28;20636;-88
2022/11/04 09:11:30;;;;;;;11.53;4.20;;;12.60;99.90;;;;;;5035886;28;20205;-90
2022/11/04 09:13:59;;;;;;;12.23;4.23;;;12.60;99.90;;;;;;5035966;28;20203;-90
2022/11/04 09:16:28;;;;;;;8.83;4.30;;;12.80;99.90;;;;;;5036403;28;20231;-91
2022/11/04 09:18:57;;;;;;;8.53;4.63;;;12.80;99.90;;;;;;5037506;28;20253;-88
2022/11/04 09:21:24;;;;;;;10.57;4.40;;;12.80;99.90;;;;;;5037183;28;20210;-90
2022/11/04 09:23:51;;;;;;;11.77;4.47;;;12.80;99.90;;;;;;5036029;28;20210;-90
2022/11/04 09:26:19;;;;;;;9.87;4.20;;;12.90;99.90;;;;;;5036663;28;20673;-89
2022/11/04 09:28:46;;;;;;;10.47;4.43;;;12.90;99.90;;;;;;5036017;28;20218;-88
2022/11/04 09:31:15;;;;;;;7.93;4.23;;;12.90;99.90;;;;;;5036520;28;20719;-89
2022/11/04 09:33:44;;;;;;;11.93;4.10;;;12.80;99.90;;;;;;5036055;28;20217;-88
2022/11/04 09:36:13;;;;;;;10.20;3.87;;;12.80;99.90;;;;;;5035739;28;20214;-88
2022/11/04 09:38:41;;;;;;;12.03;4.13;;;12.80;99.90;;;;;;5035580;28;20705;-90
2022/11/04 09:41:16;;;;;;;9.07;4.17;;;12.80;99.90;;;;;;5034579;28;20215;-88
2022/11/04 09:43:52;;;;;;;13.00;4.00;;;12.70;99.90;;;;;;5035272;28;20760;-88
2022/11/04 09:46:20;;;;;;;7.97;4.00;;;12.40;99.90;;;;;;5035153;28;20549;-87
2022/11/04 09:48:53;;;;;;;8.67;4.10;;;12.00;99.90;;;;;;5035706;28;20206;-90
2022/11/04 09:51:25;;;;;;;9.17;3.97;;;11.60;99.90;;;;;;5035495;28;20201;-89
2022/11/04 09:53:57;;;;;;;9.90;4.07;;;11.60;99.90;;;;;;5035492;28;20210;-89
2022/11/04 09:56:28;;;;;;;10.07;4.17;;;11.60;99.90;;;;;;5034431;28;20202;-90
2022/11/04 09:58:56;;;;;;;8.57;4.10;;;11.60;99.90;;;;;;5035269;28;20235;-89
2022/11/04 10:01:30;;;;;;;10.77;4.30;;;11.50;99.90;;;;;;5035129;28;20202;-90
2022/11/04 10:04:08;;;;;;;10.23;4.37;;;11.40;99.90;;;;;;5034690;28;20200;-89
2022/11/04 10:06:47;;;;;;;9.67;4.10;;;11.60;99.90;;;;;;5035991;28;20221;-95
2022/11/04 10:09:28;;;;;;;9.90;4.20;;;11.40;99.90;;;;;;5036013;28;20201;-94
2022/11/04 10:12:06;;;;;;;13.40;4.60;;;11.50;99.90;;;;;;5034446;28;20206;-92
2022/11/04 10:15:12;;;;;;;7.37;4.73;;;11.50;99.90;;;;;;5035678;28;20197;-93
2022/11/04 10:17:59;;;;;;;12.03;6.60;;;11.60;99.90;;;;;;5020322;28;20290;-93
2022/11/04 10:20:40;;;;;;;13.43;7.17;;;11.60;99.90;;;;;;5036396;28;20614;-93
2022/11/04 10:23:19;;;;;;;11.38;8.82;;;11.50;99.90;;;;;;5035447;28;20442;-92
2022/11/04 10:25:49;;;;;;;11.73;8.17;;;11.40;99.90;;;;;;5035154;28;20211;-93
2022/11/04 10:28:22;;;;;;;12.33;8.50;;;11.20;99.90;;;;;;5036343;28;20212;-94
2022/11/04 10:30:51;;;;;;;11.70;8.07;;;11.30;99.90;;;;;;5034990;28;20218;-94
2022/11/04 10:33:27;;;;;;;15.50;8.00;;;11.50;99.90;;;;;;5034725;28;20218;-93
2022/11/04 10:35:59;;;;;;;16.77;9.43;;;11.40;99.90;;;;;;5035564;28;20603;-93
2022/11/04 10:38:33;;;;;;;14.97;9.07;;;11.50;99.90;;;;;;5034670;28;20598;-93
2022/11/04 10:41:00;;;;;;;14.97;8.53;;;11.70;99.90;;;;;;5034580;28;20202;-94
2022/11/04 10:43:31;;;;;;;12.80;9.87;;;11.60;99.90;;;;;;5035446;28;20201;-94
2022/11/04 10:46:08;;;;;;;13.70;9.50;;;11.60;99.90;;;;;;5035972;28;20209;-93
2022/11/04 10:48:45;;;;;;;15.77;10.13;;;11.70;99.90;;;;;;5036332;28;20668;-93
2022/11/04 10:51:21;;;;;;;13.90;10.03;;;11.90;99.90;;;;;;5035865;28;20201;-94
2022/11/04 10:53:56;;;;;;;16.03;11.00;;;11.90;99.90;;;;;;5036316;28;20251;-94
2022/11/04 10:56:33;;;;;;;17.20;10.50;;;11.90;99.90;;;;;;5038052;28;20205;-94
2022/11/04 10:59:17;;;;;;;12.67;9.67;;;11.80;99.90;;;;;;5036798;28;20688;-94
2022/11/04 11:01:50;;;;;;;13.73;10.20;;;11.80;99.90;;;;;;5035419;28;20197;-94
2022/11/04 11:04:29;;;;;;;18.37;10.60;;;11.90;99.90;;;;;;5035102;28;20198;-94
2022/11/04 11:06:59;;;;;;;13.30;10.10;;;12.30;99.90;;;;;;5035387;28;20221;-92
2022/11/04 11:09:29;;;;;;;14.40;9.93;;;12.20;99.90;;;;;;5033975;28;20214;-94
2022/11/04 11:12:01;;;;;;;11.87;8.67;;;12.40;99.90;;;;;;5032240;28;20645;-93
2022/11/04 11:14:39;;;;;;;15.93;8.80;;;12.30;99.90;;;;;;5034702;28;20582;-92
2022/11/04 11:17:24;;;;;;;16.00;9.30;;;12.30;99.90;;;;;;5035186;28;20234;-92
2022/11/04 11:19:56;;;;;;;12.70;9.33;;;12.30;99.90;;;;;;5034789;28;20248;-93
2022/11/04 11:22:36;;;;;;;11.80;9.53;;;12.20;99.90;;;;;;5033007;28;20213;-93
2022/11/04 11:25:22;;;;;;;11.73;9.33;;;12.40;99.90;;;;;;5032529;28;20648;-96
2022/11/04 11:27:51;;;;;;;13.80;9.73;;;12.40;99.90;;;;;;5034358;28;20263;-93
2022/11/04 11:30:24;;;;;;;15.87;9.73;;;12.40;99.90;;;;;;5037999;28;20654;-96
2022/11/04 11:32:57;;;;;;;13.30;9.43;;;12.40;99.90;;;;;;5035519;28;20198;-91
2022/11/04 11:35:29;;;;;;;10.57;8.73;;;12.20;99.90;;;;;;5037940;28;20226;-92
2022/11/04 11:37:58;;;;;;;10.83;8.00;;;12.00;99.90;;;;;;5036479;28;20229;-93
2022/11/04 11:40:28;;;;;;;10.47;7.70;;;11.80;99.90;;;;;;5036126;28;20224;-93
2022/11/04 11:42:55;;;;;;;11.03;8.27;;;11.80;99.90;;;;;;5035985;28;20202;-93
2022/11/04 11:45:24;;;;;;;10.23;7.63;;;11.70;99.90;;;;;;5036418;28;20212;-93
2022/11/04 11:47:53;;;;;;;10.43;7.33;;;11.70;99.90;;;;;;5042326;28;20644;-94
2022/11/04 11:50:28;;;;;;;14.83;7.93;;;11.70;99.90;;;;;;5041983;28;20204;-94
2022/11/04 11:53:13;;;;;;;11.43;7.37;;;11.70;99.90;;;;;;5034141;28;20270;-94
2022/11/04 11:55:48;;;;;;;11.63;8.03;;;11.70;99.90;;;;;;5043318;28;20200;-94
2022/11/04 11:58:26;;;;;;;9.67;8.10;;;11.80;99.90;;;;;;5044808;28;20216;-93
2022/11/04 12:00:59;;;;;;;13.60;7.73;;;11.70;99.90;;;;;;5041199;28;20208;-93
2022/11/04 12:03:32;;;;;;;12.40;7.90;;;11.80;99.90;;;;;;5037509;28;20208;-93
2022/11/04 12:06:39;;;;;;;11.03;8.37;;;11.90;99.90;;;;;;5037031;28;20205;-93
2022/11/04 12:09:21;;;;;;;15.13;8.97;;;11.90;99.90;;;;;;4977327;28;20211;-91
2022/11/04 12:12:23;;;;;;;17.40;9.10;;;12.00;99.90;;;;;;4978526;28;20215;-94
2022/11/04 12:15:00;;;;;;;12.10;9.43;;;12.10;99.90;;;;;;5028498;28;20210;-93
2022/11/04 12:17:37;;;;;;;11.93;8.70;;;12.30;99.90;;;;;;5037933;28;20232;-94
2022/11/04 12:20:39;;;;;;;12.10;8.47;;;12.20;99.90;;;;;;5037364;28;20201;-93
2022/11/04 12:23:18;;;;;;;13.13;8.33;;;12.40;99.90;;;;;;5036800;28;20205;-93
2022/11/04 12:25:59;;;;;;;13.57;8.07;;;12.50;99.90;;;;;;5037295;28;20232;-93
2022/11/04 12:28:35;;;;;;;11.07;8.27;;;12.60;99.90;;;;;;5037781;28;20213;-92
2022/11/04 12:31:18;;;;;;;11.27;8.10;;;12.70;99.90;;;;;;5038014;28;20199;-93
2022/11/04 12:33:51;;;;;;;12.33;8.10;;;12.60;99.90;;;;;;5037233;28;20205;-94
2022/11/04 12:36:39;;;;;;;13.33;7.40;;;12.70;99.90;;;;;;5037020;28;20213;-93
2022/11/04 12:39:19;;;;;;;12.27;7.97;;;12.60;99.90;;;;;;5038003;28;20227;-93
2022/11/04 12:41:56;;;;;;;14.63;8.20;;;12.40;99.90;;;;;;5037248;28;20595;-93
2022/11/04 12:44:42;;;;;;;11.50;7.80;;;12.30;99.90;;;;;;5037505;28;20583;-93
2022/11/04 12:47:32;;;;;;;12.53;8.17;;;12.20;99.90;;;;;;5037054;28;20206;-92
2022/11/04 12:50:21;;;;;;;13.00;8.23;;;12.40;99.90;;;;;;5011416;28;20317;-92
2022/11/04 12:53:30;;;;;;;12.13;8.13;;;12.40;99.90;;;;;;5036855;28;20198;-94
2022/11/04 12:56:06;;;;;;;7.57;6.43;;;12.20;99.90;;;;;;4975900;28;20230;-92
2022/11/04 12:58:44;;;;;;;8.60;6.37;;;12.30;99.90;;;;;;4975476;28;20220;-93
2022/11/04 13:01:18;;;;;;;9.37;5.60;;;12.30;99.90;;;;;;4997179;28;20601;-92
2022/11/04 13:03:52;;;;;;;7.77;5.10;;;12.40;99.90;;;;;;5035334;28;20213;-93
2022/11/04 13:06:24;;;;;;;5.50;4.27;;;12.40;99.90;;;;;;5035334;28;20199;-92
2022/11/04 13:08:55;;;;;;;6.83;4.57;;;12.40;99.90;;;;;;5035756;28;20301;-92
2022/11/04 13:11:30;;;;;;;11.13;4.93;;;12.60;99.90;;;;;;5035981;28;20199;-93
2022/11/04 13:14:06;;;;;;;10.37;5.03;;;12.50;99.90;;;;;;5036475;28;20201;-93
2022/11/04 13:16:38;;;;;;;7.78;4.80;;;12.80;99.90;;;;;;5035448;28;20925;-94
2022/11/04 13:19:13;;;;;;;8.53;5.30;;;12.90;99.90;;;;;;5035730;28;20248;-92
2022/11/04 13:21:40;;;;;;;8.67;6.53;;;12.90;99.90;;;;;;5034901;28;20194;-92
2022/11/04 13:24:17;;;;;;;9.63;6.30;;;12.90;99.90;;;;;;5035956;28;20206;-92
2022/11/04 13:26:44;;;;;;;10.50;7.27;;;12.80;99.90;;;;;;5035920;28;20209;-91
2022/11/04 13:29:20;;;;;;;11.57;7.40;;;12.90;99.90;;;;;;5035304;28;20230;-93
2022/11/04 13:31:55;;;;;;;11.17;5.90;;;13.00;99.90;;;;;;5035608;28;20198;-93
2022/11/04 13:34:34;;;;;;;10.90;5.67;;;12.90;99.90;;;;;;5035702;28;20198;-93
2022/11/04 13:37:10;;;;;;;11.27;5.80;;;13.00;99.90;;;;;;5035740;28;20194;-94
2022/11/04 13:39:45;;;;;;;6.13;5.50;;;13.00;99.90;;;;;;5035778;28;20218;-94
2022/11/04 13:42:29;;;;;;;7.10;5.50;;;12.90;99.90;;;;;;5034953;28;20198;-91
2022/11/04 13:45:10;;;;;;;5.63;3.63;;;12.80;99.90;;;;;;5034678;28;20206;-91
2022/11/04 13:47:50;;;;;;;1.90;1.57;;;12.70;99.90;;;;;;5035017;28;20222;-93
2022/11/04 13:50:34;;;;;;;1.85;1.00;;;12.50;99.90;;;;;;5034482;28;20787;-91
2022/11/04 13:53:03;;;;;;;2.00;0.70;;;12.00;99.90;;;;;;5035224;28;20198;-91
2022/11/04 13:55:34;;;;;;;0.87;0.83;;;11.60;99.90;;;;;;5034430;28;20656;-90
2022/11/04 13:58:07;;;;;;;1.00;0.70;;;11.40;99.90;;;;;;5034437;28;20205;-92
2022/11/04 14:00:38;;;;;;;1.47;0.70;;;11.20;99.90;;;;;;5034989;28;20215;-93
2022/11/04 14:03:40;;;;;;;2.90;1.03;;;11.10;99.90;;;;;;5034446;28;20270;-93